Latest Coastal Weather Observations for Alva Beach

IDQ60701

Issued at 5:05 pm EST Thursday 2 October 2014 (issued every 10 minutes, with the page automatically refreshed every 10 minutes)

About coastal observations | Map of coastal stations | Coastal observations for QLD | Marine services | Other Formats
Station Details ID: 033295 Name: ALVA BEACH Lat: -19.46 Lon: 147.48 Height: 7.5 m
Data from the previous 72 hours. | See also: Recent months at Alva Beach
Date/Time
EST
Temp

°C
Wind Pressure Rain
since 9am
mm
Weather Cloud Vis
km
Sea
Height
m
Swell
Dir
 
Speed
knots
Gust
knots
hPa Trend Height
m
Period
s
Dir
02/05:00pm 23.4 ENE 11 14 1015.7 - 0.0 - - - - - - -
02/04:30pm 23.8 ENE 13 16 1015.4 - 0.0 - - - - - - -
02/04:00pm 24.1 ENE 13 16 1015.2 - 0.0 - - - - - - -
02/03:30pm 24.1 NE 12 16 1015.3 - 0.0 - - - - - - -
02/03:00pm 24.5 ENE 11 13 1015.3 - 0.0 - - - - - - -
02/02:30pm 24.8 NE 10 13 1015.6 - 0.0 - - - - - - -
02/02:00pm 25.4 NE 10 12 1015.7 - 0.0 - - - - - - -
02/01:30pm 24.3 NE 9 12 1016.0 - 0.0 - - - - - - -
02/01:00pm 25.0 ENE 8 11 1016.5 - 0.0 - - - - - - -
02/12:30pm 24.5 ENE 8 11 1016.8 - 0.0 - - - - - - -
02/12:00pm 24.9 E 8 11 1017.1 - 0.0 - - - - - - -
02/11:30am 24.4 E 7 10 1017.4 - 0.0 - - - - - - -
02/11:00am 24.3 E 7 10 1017.7 - 0.0 - - - - - - -
02/10:30am 25.3 ENE 8 10 1017.6 - 0.0 - - - - - - -
02/10:00am 24.4 ENE 6 9 1017.7 - 0.0 - - - - - - -
02/09:30am 24.3 E 6 9 1017.6 - 0.0 - - - - - - -
02/09:00am 24.0 E 5 7 1017.6 - 0.0 - - - - - - -
02/08:30am 23.3 E 4 6 1017.5 - 0.0 - - - - - - -
02/08:00am 21.9 S 4 6 1017.3 - 0.0 - - - - - - -
02/07:30am 20.0 S 5 7 1017.0 - 0.0 - - - - - - -
02/07:00am 18.2 SSW 5 7 1016.5 - 0.0 - - - - - - -
02/06:30am 16.5 SSW 5 6 1016.3 - 0.0 - - - - - - -
02/06:00am 16.3 SSW 5 6 1016.1 - 0.0 - - - - - - -
02/05:30am 16.5 SSW 4 5 1015.9 - 0.0 - - - - - - -
02/05:00am 16.6 S 5 7 1015.8 - 0.0 - - - - - - -
02/04:30am 16.6 SSW 5 6 1015.5 - 0.0 - - - - - - -
02/04:00am 17.2 S 3 7 1015.2 - 0.0 - - - - - - -
02/03:30am 18.6 S 3 5 1015.2 - 0.0 - - - - - - -
02/03:00am 20.5 E 6 8 1015.3 - 0.0 - - - - - - -
02/02:30am 20.7 ENE 8 10 1015.1 - 0.0 - - - - - - -
02/02:00am 20.9 NE 10 13 1015.3 - 0.0 - - - - - - -
02/01:30am 21.0 NE 11 13 1015.6 - 0.0 - - - - - - -
02/01:00am 21.2 NE 11 14 1015.9 - 0.0 - - - - - - -
02/12:30am 21.2 ENE 10 13 1016.1 - 0.0 - - - - - - -
02/12:00am 21.5 ENE 9 12 1016.4 - 0.0 - - - - - - -
 
Date/Time
EST
Temp

°C
Wind Pressure Rain
since 9am
mm
Weather Cloud Vis
km
Sea
Height
m
Swell
Dir
 
Speed
knots
Gust
knots
hPa Trend Height
m
Period
s
Dir
01/11:30pm 21.5 ENE 9 12 1016.5 - 0.0 - - - - - - -
01/11:00pm 21.5 E 7 9 1016.7 - 0.0 - - - - - - -
01/10:30pm 21.5 ENE 7 9 1016.7 - 0.0 - - - - - - -
01/10:00pm 21.5 ENE 7 11 1016.6 - 0.0 - - - - - - -
01/09:30pm 21.7 ENE 8 10 1016.5 - 0.0 - - - - - - -
01/09:00pm 21.9 ENE 8 10 1016.5 - 0.0 - - - - - - -
01/08:30pm 22.0 ENE 8 11 1016.4 - 0.0 - - - - - - -
01/08:00pm 22.0 ENE 9 11 1016.3 - 0.0 - - - - - - -
01/07:30pm 22.2 ENE 10 12 1016.1 - 0.0 - - - - - - -
01/07:00pm 22.1 ENE 10 12 1015.9 - 0.0 - - - - - - -
01/06:30pm 22.3 ENE 12 14 1015.6 - 0.0 - - - - - - -
01/06:00pm 22.5 ENE 13 16 1015.4 - 0.0 - - - - - - -
01/05:30pm 23.0 ENE 13 15 1015.2 - 0.0 - - - - - - -
01/05:00pm 23.3 ENE 13 15 1015.1 - 0.0 - - - - - - -
01/04:30pm 23.7 ENE 13 15 1015.0 - 0.0 - - - - - - -
01/04:00pm 23.9 ENE 13 16 1014.9 - 0.0 - - - - - - -
01/03:30pm 24.3 ENE 12 15 1015.0 - 0.0 - - - - - - -
01/03:00pm 24.6 ENE 12 15 1015.3 - 0.0 - - - - - - -
01/02:30pm 24.5 ENE 12 15 1015.5 - 0.0 - - - - - - -
01/02:00pm 24.7 E 11 15 1015.8 - 0.0 - - - - - - -
01/01:30pm 24.5 E 11 15 1016.2 - 0.0 - - - - - - -
01/01:00pm 24.5 E 11 16 1016.7 - 0.0 - - - - - - -
01/12:30pm 24.8 E 11 16 1017.2 - 0.0 - - - - - - -
01/12:00pm 25.0 E 10 15 1017.7 - 0.0 - - - - - - -
01/11:30am 25.8 ESE 8 13 1018.2 - 0.0 - - - - - - -
01/11:00am 25.3 E 9 14 1018.6 - 0.0 - - - - - - -
01/10:30am 25.3 ESE 8 13 1018.9 - 0.0 - - - - - - -
01/10:00am 24.5 SE 7 12 1019.1 - 0.0 - - - - - - -
01/09:30am 24.0 ESE 7 11 1019.0 - 0.0 - - - - - - -
01/09:00am 23.9 SE 6 10 1018.9 - 0.0 - - - - - - -
01/08:30am 23.5 ESE 5 8 1019.0 - 0.0 - - - - - - -
01/08:00am 22.3 SSE 3 6 1018.9 - 0.0 - - - - - - -
01/07:30am 20.3 S 4 6 1018.6 - 0.0 - - - - - - -
01/07:00am 18.6 S 5 8 1018.2 - 0.0 - - - - - - -
01/06:30am 16.1 SSW 5 7 1017.8 - 0.0 - - - - - - -
01/06:00am 15.2 SSW 5 7 1017.6 - 0.0 - - - - - - -
01/05:30am 15.3 SSW 5 7 1017.5 - 0.0 - - - - - - -
01/05:00am 15.5 SSW 5 6 1017.3 - 0.0 - - - - - - -
01/04:30am 15.8 SSW 5 7 1017.2 - 0.0 - - - - - - -
01/04:00am 16.6 SSW 4 6 1017.0 - 0.0 - - - - - - -
01/03:30am 20.2 ESE 5 9 1016.8 - 0.0 - - - - - - -
01/03:00am 20.5 E 6 10 1017.0 - 0.0 - - - - - - -
01/02:30am 21.1 E 8 12 1017.0 - 0.0 - - - - - - -
01/02:00am 21.1 E 8 10 1017.4 - 0.0 - - - - - - -
01/01:30am 21.4 E 9 12 1017.6 - 0.0 - - - - - - -
01/01:00am 21.3 E 8 11 1017.8 - 0.0 - - - - - - -
01/12:30am 21.5 E 10 15 1018.1 - 0.0 - - - - - - -
01/12:00am 21.5 E 10 13 1018.3 - 0.0 - - - - - - -
 
Date/Time
EST
Temp

°C
Wind Pressure Rain
since 9am
mm
Weather Cloud Vis
km
Sea
Height
m
Swell
Dir
 
Speed
knots
Gust
knots
hPa Trend Height
m
Period
s
Dir
30/11:30pm 21.6 E 11 16 1018.5 - 0.0 - - - - - - -
30/11:00pm 21.7 E 13 17 1018.6 - 0.0 - - - - - - -
30/10:30pm 21.8 E 12 17 1018.8 - 0.0 - - - - - - -
30/10:00pm 21.9 E 12 16 1018.7 - 0.0 - - - - - - -
30/09:30pm 21.9 E 12 15 1018.7 - 0.0 - - - - - - -
30/09:00pm 22.0 E 13 17 1018.6 - 0.0 - - - - - - -
30/08:30pm 22.0 ENE 14 18 1018.3 - 0.0 - - - - - - -
30/08:00pm 22.1 ENE 13 16 1018.0 - 0.0 - - - - - - -
30/07:30pm 22.3 ENE 15 18 1017.7 - 0.0 - - - - - - -
30/07:00pm 22.3 ENE 15 17 1017.5 - 0.0 - - - - - - -
30/06:30pm 22.4 ENE 15 21 1017.1 - 0.0 - - - - - - -
30/06:00pm 22.6 ENE 13 17 1016.8 - 0.0 - - - - - - -
30/05:30pm 22.8 ENE 13 16 1016.6 - 0.0 - - - - - - -
30/05:00pm 23.5 ENE 13 16 1016.3 - 0.0 - - - - - - -
30/04:30pm 23.7 ENE 13 16 1016.0 - 0.0 - - - - - - -
30/04:00pm 24.1 E 13 18 1016.1 - 0.0 - - - - - - -
30/03:30pm 24.5 E 13 17 1016.0 - 0.0 - - - - - - -
30/03:00pm 24.5 E 13 17 1016.0 - 0.0 - - - - - - -
30/02:30pm 24.8 E 12 17 1016.1 - 0.0 - - - - - - -
30/02:00pm 24.1 E 10 15 1016.6 - 0.0 - - - - - - -
30/01:30pm 23.9 E 9 14 1017.1 - 0.0 - - - - - - -
30/01:00pm 24.2 E 10 14 1017.5 - 0.0 - - - - - - -
30/12:30pm 25.3 E 8 13 1018.0 - 0.0 - - - - - - -
30/12:00pm 25.2 E 8 13 1018.5 - 0.0 - - - - - - -
30/11:30am 25.8 ESE 9 14 1019.1 - 0.0 - - - - - - -
30/11:00am 25.0 ESE 9 12 1019.6 - 0.0 - - - - - - -
30/10:30am 25.0 ESE 7 13 1019.9 - 0.0 - - - - - - -
30/10:00am 23.9 ESE 8 13 1020.2 - 0.0 - - - - - - -
30/09:30am 24.3 SE 7 12 1020.2 - 0.0 - - - - - - -
30/09:00am 23.5 SE 8 13 1020.2 - 0.0 - - - - - - -
30/08:30am 23.0 SE 7 10 1020.1 - 0.0 - - - - - - -
30/08:00am 22.1 S 5 8 1019.9 - 0.0 - - - - - - -
30/07:30am 20.4 SE 3 4 1019.7 - 0.0 - - - - - - -
30/07:00am 21.0 E 6 11 1019.3 - 0.0 - - - - - - -
30/06:30am 21.2 E 7 11 1018.9 - 0.0 - - - - - - -
30/06:00am 20.7 E 10 14 1018.6 - 0.0 - - - - - - -
30/05:30am 20.8 E 10 14 1018.4 - 0.0 - - - - - - -
30/05:00am 20.9 E 11 18 1018.0 - 0.0 - - - - - - -
30/04:30am 20.8 E 12 18 1017.8 - 0.0 - - - - - - -
30/04:00am 20.7 E 13 18 1017.5 - 0.0 - - - - - - -
30/03:30am 20.9 E 13 18 1017.4 - 0.0 - - - - - - -
30/03:00am 21.1 E 15 19 1017.3 - 0.0 - - - - - - -
30/02:30am 21.4 E 15 21 1017.4 - 0.0 - - - - - - -
30/02:00am 21.2 E 14 19 1017.6 - 0.0 - - - - - - -
30/01:30am 21.0 E 13 19 1017.8 - 0.0 - - - - - - -
30/01:00am 21.4 E 14 20 1017.8 - 0.0 - - - - - - -
30/12:30am 21.6 E 13 18 1018.0 - 0.0 - - - - - - -
30/12:00am 21.7 E 15 20 1018.4 - 0.0 - - - - - - -
 
Date/Time
EST
Temp

°C
Wind Pressure Rain
since 9am
mm
Weather Cloud Vis
km
Sea
Height
m
Swell
Dir
 
Speed
knots
Gust
knots
hPa Trend Height
m
Period
s
Dir
29/11:30pm 21.8 E 15 22 1018.5 - 0.0 - - - - - - -
29/11:00pm 22.0 E 15 20 1018.4 - 0.0 - - - - - - -
29/10:30pm 21.9 E 15 21 1018.6 - 0.0 - - - - - - -
29/10:00pm 22.0 E 15 22 1018.4 - 0.0 - - - - - - -
29/09:30pm 22.1 E 15 20 1018.4 - 0.0 - - - - - - -
29/09:00pm 22.3 E 15 19 1018.4 - 0.0 - - - - - - -
29/08:30pm 22.2 E 16 21 1018.0 - 0.0 - - - - - - -
29/08:00pm 22.4 E 17 23 1017.7 - 0.0 - - - - - - -
29/07:30pm 22.4 E 17 23 1017.3 - 0.0 - - - - - - -
29/07:00pm 22.5 E 15 20 1017.0 - 0.0 - - - - - - -
29/06:30pm 22.5 E 15 21 1016.6 - 0.0 - - - - - - -
29/06:00pm 22.8 E 15 20 1016.4 - 0.0 - - - - - - -
29/05:30pm 22.9 E 16 20 1016.1 - 0.0 - - - - - - -

Other Formats:

Comma delimited format used in spreadsheet applications
http://www.bom.gov.au/fwo/IDQ60701/IDQ60701.95296.axf

JavaScript Object Notation format (JSON) in row-major order
http://www.bom.gov.au/fwo/IDQ60701/IDQ60701.95296.json